sensor_id;sensor_type;location;lat;lon;timestamp;P1;P2;P0
76101;PMS7003;64830;46.910;6.354;2023-02-25T00:00:21;6.25;5.00;5.00
76101;PMS7003;64830;46.910;6.354;2023-02-25T00:02:49;2.50;2.50;1.00
76101;PMS7003;64830;46.910;6.354;2023-02-25T00:05:16;2.75;2.75;1.50
76101;PMS7003;64830;46.910;6.354;2023-02-25T00:07:42;2.00;1.00;0.00
76101;PMS7003;64830;46.910;6.354;2023-02-25T00:10:09;2.00;2.00;1.00
76101;PMS7003;64830;46.910;6.354;2023-02-25T00:12:37;3.00;3.00;1.00
76101;PMS7003;64830;46.910;6.354;2023-02-25T00:15:03;4.25;2.50;1.00
76101;PMS7003;64830;46.910;6.354;2023-02-25T00:17:30;3.00;2.00;1.00
76101;PMS7003;64830;46.910;6.354;2023-02-25T00:19:57;2.00;2.00;1.25
76101;PMS7003;64830;46.910;6.354;2023-02-25T00:22:23;2.00;2.00;1.75
76101;PMS7003;64830;46.910;6.354;2023-02-25T00:24:52;2.25;2.25;2.00
76101;PMS7003;64830;46.910;6.354;2023-02-25T00:27:19;3.50;3.00;2.00
76101;PMS7003;64830;46.910;6.354;2023-02-25T00:29:44;3.75;2.00;1.00
76101;PMS7003;64830;46.910;6.354;2023-02-25T00:32:10;3.00;3.00;2.00
76101;PMS7003;64830;46.910;6.354;2023-02-25T00:34:35;4.00;2.75;2.25
76101;PMS7003;64830;46.910;6.354;2023-02-25T00:37:00;2.00;2.00;2.00
76101;PMS7003;64830;46.910;6.354;2023-02-25T00:39:26;1.00;1.00;1.00
76101;PMS7003;64830;46.910;6.354;2023-02-25T00:42:06;3.00;3.00;1.00
76101;PMS7003;64830;46.910;6.354;2023-02-25T00:44:42;2.75;2.75;1.50
76101;PMS7003;64830;46.910;6.354;2023-02-25T00:47:12;4.75;4.00;3.00
76101;PMS7003;64830;46.910;6.354;2023-02-25T00:49:39;3.50;2.75;1.50
76101;PMS7003;64830;46.910;6.354;2023-02-25T00:52:05;3.00;3.00;2.00
76101;PMS7003;64830;46.910;6.354;2023-02-25T00:54:32;4.50;4.50;2.00
76101;PMS7003;64830;46.910;6.354;2023-02-25T00:56:58;2.25;2.25;2.00
76101;PMS7003;64830;46.910;6.354;2023-02-25T00:59:23;6.25;4.25;2.75
76101;PMS7003;64830;46.910;6.354;2023-02-25T01:01:49;4.00;2.75;2.00
76101;PMS7003;64830;46.910;6.354;2023-02-25T01:04:14;2.00;2.00;1.50
76101;PMS7003;64830;46.910;6.354;2023-02-25T01:06:40;3.75;3.00;2.00
76101;PMS7003;64830;46.910;6.354;2023-02-25T01:09:06;4.00;4.00;2.00
76101;PMS7003;64830;46.910;6.354;2023-02-25T01:11:38;4.00;3.00;2.00
76101;PMS7003;64830;46.910;6.354;2023-02-25T01:14:09;4.25;3.75;1.75
76101;PMS7003;64830;46.910;6.354;2023-02-25T01:16:36;5.75;5.00;2.25
76101;PMS7003;64830;46.910;6.354;2023-02-25T01:19:04;4.25;4.25;2.00
76101;PMS7003;64830;46.910;6.354;2023-02-25T01:21:33;6.25;5.00;3.00
76101;PMS7003;64830;46.910;6.354;2023-02-25T01:24:01;6.25;4.25;2.00
76101;PMS7003;64830;46.910;6.354;2023-02-25T01:26:32;5.75;4.75;4.00
76101;PMS7003;64830;46.910;6.354;2023-02-25T01:28:59;5.50;5.50;3.00
76101;PMS7003;64830;46.910;6.354;2023-02-25T01:31:25;6.75;5.75;5.00
76101;PMS7003;64830;46.910;6.354;2023-02-25T01:33:55;6.50;5.00;3.50
76101;PMS7003;64830;46.910;6.354;2023-02-25T01:36:26;6.00;6.00;4.25
76101;PMS7003;64830;46.910;6.354;2023-02-25T01:38:53;5.00;3.75;3.00
76101;PMS7003;64830;46.910;6.354;2023-02-25T01:41:20;8.25;7.00;5.50
76101;PMS7003;64830;46.910;6.354;2023-02-25T01:46:28;7.50;6.75;3.00
76101;PMS7003;64830;46.910;6.354;2023-02-25T01:48:53;3.50;3.00;2.50
76101;PMS7003;64830;46.910;6.354;2023-02-25T01:51:21;5.00;2.75;1.75
76101;PMS7003;64830;46.910;6.354;2023-02-25T01:53:49;6.75;5.50;4.00
76101;PMS7003;64830;46.910;6.354;2023-02-25T01:56:16;6.50;5.00;4.00
76101;PMS7003;64830;46.910;6.354;2023-02-25T01:58:44;4.00;4.00;2.75
76101;PMS7003;64830;46.910;6.354;2023-02-25T02:01:13;6.50;6.50;5.50
76101;PMS7003;64830;46.910;6.354;2023-02-25T02:03:41;6.00;5.50;3.00
76101;PMS7003;64830;46.910;6.354;2023-02-25T02:06:13;6.50;6.00;5.00
76101;PMS7003;64830;46.910;6.354;2023-02-25T02:08:42;9.50;7.50;5.00
76101;PMS7003;64830;46.910;6.354;2023-02-25T02:11:08;7.50;6.00;5.50
76101;PMS7003;64830;46.910;6.354;2023-02-25T02:13:35;4.75;4.50;3.00
76101;PMS7003;64830;46.910;6.354;2023-02-25T02:18:56;10.25;8.00;6.25
76101;PMS7003;64830;46.910;6.354;2023-02-25T02:26:55;9.25;7.00;6.00
76101;PMS7003;64830;46.910;6.354;2023-02-25T02:35:04;12.50;8.25;6.50
76101;PMS7003;64830;46.910;6.354;2023-02-25T02:37:57;10.75;8.50;6.50
76101;PMS7003;64830;46.910;6.354;2023-02-25T02:40:40;9.50;8.75;7.50
76101;PMS7003;64830;46.910;6.354;2023-02-25T02:46:13;11.50;10.25;7.00
76101;PMS7003;64830;46.910;6.354;2023-02-25T02:48:51;7.00;7.00;5.00
76101;PMS7003;64830;46.910;6.354;2023-02-25T02:51:30;11.75;10.75;8.75
76101;PMS7003;64830;46.910;6.354;2023-02-25T02:54:02;1.00;1.00;0.00
76101;PMS7003;64830;46.910;6.354;2023-02-25T02:56:29;4.50;4.50;3.00
76101;PMS7003;64830;46.910;6.354;2023-02-25T02:59:03;6.25;6.00;4.75
76101;PMS7003;64830;46.910;6.354;2023-02-25T03:01:37;6.75;6.75;5.75
76101;PMS7003;64830;46.910;6.354;2023-02-25T03:04:18;6.00;6.00;5.00
76101;PMS7003;64830;46.910;6.354;2023-02-25T03:06:50;3.50;3.50;2.25
76101;PMS7003;64830;46.910;6.354;2023-02-25T03:09:21;6.75;5.00;3.00
76101;PMS7003;64830;46.910;6.354;2023-02-25T03:11:51;5.75;5.50;3.00
76101;PMS7003;64830;46.910;6.354;2023-02-25T03:14:16;7.50;6.75;6.00
76101;PMS7003;64830;46.910;6.354;2023-02-25T03:17:04;8.75;6.75;5.00
76101;PMS7003;64830;46.910;6.354;2023-02-25T03:19:34;7.00;7.00;5.00
76101;PMS7003;64830;46.910;6.354;2023-02-25T03:22:09;6.25;5.00;3.00
76101;PMS7003;64830;46.910;6.354;2023-02-25T03:24:40;7.00;5.00;3.00
76101;PMS7003;64830;46.910;6.354;2023-02-25T03:27:25;5.00;4.00;3.25
76101;PMS7003;64830;46.910;6.354;2023-02-25T03:32:57;7.75;6.50;5.75
76101;PMS7003;64830;46.910;6.354;2023-02-25T03:35:27;9.25;5.75;5.00
76101;PMS7003;64830;46.910;6.354;2023-02-25T03:37:55;10.50;6.00;5.00
76101;PMS7003;64830;46.910;6.354;2023-02-25T03:40:26;4.50;3.50;3.00
76101;PMS7003;64830;46.910;6.354;2023-02-25T03:42:55;6.00;6.00;4.50
76101;PMS7003;64830;46.910;6.354;2023-02-25T03:45:26;8.00;7.25;6.00
76101;PMS7003;64830;46.910;6.354;2023-02-25T03:47:52;9.25;9.25;7.00
76101;PMS7003;64830;46.910;6.354;2023-02-25T03:50:21;7.00;6.75;5.00
76101;PMS7003;64830;46.910;6.354;2023-02-25T03:52:49;7.75;7.75;5.50
76101;PMS7003;64830;46.910;6.354;2023-02-25T03:55:15;9.00;7.00;5.00
76101;PMS7003;64830;46.910;6.354;2023-02-25T03:57:42;7.50;7.00;5.25
76101;PMS7003;64830;46.910;6.354;2023-02-25T04:02:43;8.00;6.00;5.00
76101;PMS7003;64830;46.910;6.354;2023-02-25T04:05:10;11.00;7.00;6.00
76101;PMS7003;64830;46.910;6.354;2023-02-25T04:07:36;9.50;7.25;5.75
76101;PMS7003;64830;46.910;6.354;2023-02-25T04:10:03;11.25;10.25;6.75
76101;PMS7003;64830;46.910;6.354;2023-02-25T04:12:30;10.50;6.50;5.00
76101;PMS7003;64830;46.910;6.354;2023-02-25T04:14:55;7.50;7.00;6.00
76101;PMS7003;64830;46.910;6.354;2023-02-25T04:17:21;10.00;7.75;5.50
76101;PMS7003;64830;46.910;6.354;2023-02-25T04:19:46;9.25;6.50;3.50
76101;PMS7003;64830;46.910;6.354;2023-02-25T04:22:12;7.00;6.00;5.00
76101;PMS7003;64830;46.910;6.354;2023-02-25T04:24:37;10.50;7.25;5.25
76101;PMS7003;64830;46.910;6.354;2023-02-25T04:27:02;11.75;8.50;3.00
76101;PMS7003;64830;46.910;6.354;2023-02-25T04:29:28;12.25;9.00;7.00
76101;PMS7003;64830;46.910;6.354;2023-02-25T04:31:54;14.00;10.00;7.00
76101;PMS7003;64830;46.910;6.354;2023-02-25T04:34:20;12.25;9.00;6.25
76101;PMS7003;64830;46.910;6.354;2023-02-25T04:36:45;10.50;7.50;5.25
76101;PMS7003;64830;46.910;6.354;2023-02-25T04:39:12;13.75;10.00;6.25
76101;PMS7003;64830;46.910;6.354;2023-02-25T04:41:39;8.75;8.75;5.75
76101;PMS7003;64830;46.910;6.354;2023-02-25T04:44:06;12.25;9.25;6.25
76101;PMS7003;64830;46.910;6.354;2023-02-25T04:46:32;12.75;10.75;8.00
76101;PMS7003;64830;46.910;6.354;2023-02-25T04:49:00;15.00;12.00;8.75
76101;PMS7003;64830;46.910;6.354;2023-02-25T04:51:25;7.00;7.00;6.00
76101;PMS7003;64830;46.910;6.354;2023-02-25T04:53:51;13.25;9.50;7.00
76101;PMS7003;64830;46.910;6.354;2023-02-25T04:56:17;11.25;10.50;7.00
76101;PMS7003;64830;46.910;6.354;2023-02-25T04:58:42;9.25;6.25;5.00
76101;PMS7003;64830;46.910;6.354;2023-02-25T05:01:08;13.25;7.00;6.00
76101;PMS7003;64830;46.910;6.354;2023-02-25T05:03:35;7.00;6.00;5.00
76101;PMS7003;64830;46.910;6.354;2023-02-25T05:06:00;9.00;5.25;4.00
76101;PMS7003;64830;46.910;6.354;2023-02-25T05:08:26;7.00;6.25;5.00
76101;PMS7003;64830;46.910;6.354;2023-02-25T05:10:52;10.75;10.75;5.75
76101;PMS7003;64830;46.910;6.354;2023-02-25T05:13:18;13.75;9.75;6.00
76101;PMS7003;64830;46.910;6.354;2023-02-25T05:15:44;10.00;8.50;5.00
76101;PMS7003;64830;46.910;6.354;2023-02-25T05:18:10;12.75;9.00;5.00
76101;PMS7003;64830;46.910;6.354;2023-02-25T05:20:39;10.25;8.00;7.00
76101;PMS7003;64830;46.910;6.354;2023-02-25T05:23:06;21.25;11.50;7.00
76101;PMS7003;64830;46.910;6.354;2023-02-25T05:25:31;14.25;13.00;8.50
76101;PMS7003;64830;46.910;6.354;2023-02-25T05:27:58;14.50;12.25;6.25
76101;PMS7003;64830;46.910;6.354;2023-02-25T05:30:24;10.00;9.00;6.75
76101;PMS7003;64830;46.910;6.354;2023-02-25T05:32:49;12.00;10.50;7.50
76101;PMS7003;64830;46.910;6.354;2023-02-25T05:35:15;14.75;10.75;6.00
76101;PMS7003;64830;46.910;6.354;2023-02-25T05:37:41;7.75;7.25;7.00
76101;PMS7003;64830;46.910;6.354;2023-02-25T05:40:06;12.50;11.00;8.50
76101;PMS7003;64830;46.910;6.354;2023-02-25T05:42:38;13.00;10.75;6.25
76101;PMS7003;64830;46.910;6.354;2023-02-25T05:45:03;14.00;10.75;8.25
76101;PMS7003;64830;46.910;6.354;2023-02-25T05:47:30;10.75;9.00;6.00
76101;PMS7003;64830;46.910;6.354;2023-02-25T05:49:56;13.25;10.25;7.00
76101;PMS7003;64830;46.910;6.354;2023-02-25T05:52:21;18.75;11.50;9.25
76101;PMS7003;64830;46.910;6.354;2023-02-25T05:54:46;14.50;13.75;9.25
76101;PMS7003;64830;46.910;6.354;2023-02-25T05:57:12;16.25;13.25;9.50
76101;PMS7003;64830;46.910;6.354;2023-02-25T05:59:37;14.50;10.00;6.75
76101;PMS7003;64830;46.910;6.354;2023-02-25T06:02:03;22.25;17.00;9.00
76101;PMS7003;64830;46.910;6.354;2023-02-25T06:04:28;14.75;10.75;6.75
76101;PMS7003;64830;46.910;6.354;2023-02-25T06:06:54;15.50;7.75;6.00
76101;PMS7003;64830;46.910;6.354;2023-02-25T06:09:20;14.25;11.50;7.50
76101;PMS7003;64830;46.910;6.354;2023-02-25T06:11:46;13.50;9.75;7.00
76101;PMS7003;64830;46.910;6.354;2023-02-25T06:14:12;12.75;10.25;6.00
76101;PMS7003;64830;46.910;6.354;2023-02-25T06:16:39;12.75;12.75;9.00
76101;PMS7003;64830;46.910;6.354;2023-02-25T06:19:05;11.00;9.00;6.00
76101;PMS7003;64830;46.910;6.354;2023-02-25T06:21:32;10.00;8.50;6.00
76101;PMS7003;64830;46.910;6.354;2023-02-25T06:23:59;10.75;9.75;5.00
76101;PMS7003;64830;46.910;6.354;2023-02-25T06:26:26;11.00;9.75;7.00
76101;PMS7003;64830;46.910;6.354;2023-02-25T06:28:52;12.00;11.25;8.50
76101;PMS7003;64830;46.910;6.354;2023-02-25T06:31:18;14.00;11.25;9.00
76101;PMS7003;64830;46.910;6.354;2023-02-25T06:33:46;12.50;10.50;8.00
76101;PMS7003;64830;46.910;6.354;2023-02-25T06:36:12;6.50;6.50;4.00
76101;PMS7003;64830;46.910;6.354;2023-02-25T06:38:39;14.00;12.00;9.00
76101;PMS7003;64830;46.910;6.354;2023-02-25T06:41:09;7.50;7.50;3.25
76101;PMS7003;64830;46.910;6.354;2023-02-25T06:43:39;20.75;15.75;10.00
76101;PMS7003;64830;46.910;6.354;2023-02-25T06:46:05;15.25;14.00;9.25
76101;PMS7003;64830;46.910;6.354;2023-02-25T06:48:33;20.00;17.50;10.25
76101;PMS7003;64830;46.910;6.354;2023-02-25T06:50:58;19.75;16.75;10.75
76101;PMS7003;64830;46.910;6.354;2023-02-25T06:53:24;16.25;13.25;9.75
76101;PMS7003;64830;46.910;6.354;2023-02-25T06:55:50;18.25;15.25;10.00
76101;PMS7003;64830;46.910;6.354;2023-02-25T06:58:15;12.50;10.00;7.25
76101;PMS7003;64830;46.910;6.354;2023-02-25T07:00:42;20.25;17.25;10.75
76101;PMS7003;64830;46.910;6.354;2023-02-25T07:03:11;16.75;15.75;10.00
76101;PMS7003;64830;46.910;6.354;2023-02-25T07:05:36;9.25;7.50;6.00
76101;PMS7003;64830;46.910;6.354;2023-02-25T07:08:02;16.25;13.00;9.50
76101;PMS7003;64830;46.910;6.354;2023-02-25T07:10:27;15.25;13.00;6.75
76101;PMS7003;64830;46.910;6.354;2023-02-25T07:12:53;19.75;17.00;12.00
76101;PMS7003;64830;46.910;6.354;2023-02-25T07:15:19;20.50;13.75;9.50
76101;PMS7003;64830;46.910;6.354;2023-02-25T07:17:45;17.00;13.75;9.00
76101;PMS7003;64830;46.910;6.354;2023-02-25T07:20:11;10.75;6.50;5.75
76101;PMS7003;64830;46.910;6.354;2023-02-25T07:22:36;21.25;16.50;9.75
76101;PMS7003;64830;46.910;6.354;2023-02-25T07:25:02;18.00;18.00;10.25
76101;PMS7003;64830;46.910;6.354;2023-02-25T07:27:27;18.50;17.50;10.00
76101;PMS7003;64830;46.910;6.354;2023-02-25T07:29:53;19.25;17.25;9.75
76101;PMS7003;64830;46.910;6.354;2023-02-25T07:32:19;20.75;13.75;9.00
76101;PMS7003;64830;46.910;6.354;2023-02-25T07:34:44;19.00;16.25;10.00
76101;PMS7003;64830;46.910;6.354;2023-02-25T07:37:10;13.25;12.00;7.25
76101;PMS7003;64830;46.910;6.354;2023-02-25T07:39:36;16.75;13.00;9.00
76101;PMS7003;64830;46.910;6.354;2023-02-25T07:42:02;12.25;10.00;6.00
76101;PMS7003;64830;46.910;6.354;2023-02-25T07:44:28;16.00;12.75;9.75
76101;PMS7003;64830;46.910;6.354;2023-02-25T07:46:53;15.50;14.25;9.00
76101;PMS7003;64830;46.910;6.354;2023-02-25T07:49:19;16.50;14.25;9.00
76101;PMS7003;64830;46.910;6.354;2023-02-25T07:51:44;14.25;13.00;8.75
76101;PMS7003;64830;46.910;6.354;2023-02-25T07:54:10;13.75;9.25;7.25
76101;PMS7003;64830;46.910;6.354;2023-02-25T07:56:35;8.75;6.50;4.75
76101;PMS7003;64830;46.910;6.354;2023-02-25T07:59:01;13.50;11.25;8.25
76101;PMS7003;64830;46.910;6.354;2023-02-25T08:01:28;14.50;9.75;6.50
76101;PMS7003;64830;46.910;6.354;2023-02-25T08:03:57;10.00;7.50;5.25
76101;PMS7003;64830;46.910;6.354;2023-02-25T08:06:24;8.25;8.00;5.00
76101;PMS7003;64830;46.910;6.354;2023-02-25T08:08:50;10.50;9.75;6.00
76101;PMS7003;64830;46.910;6.354;2023-02-25T08:11:16;9.75;9.00;6.00
76101;PMS7003;64830;46.910;6.354;2023-02-25T08:13:42;9.50;9.00;5.00
76101;PMS7003;64830;46.910;6.354;2023-02-25T08:16:09;10.50;8.00;5.25
76101;PMS7003;64830;46.910;6.354;2023-02-25T08:18:37;12.75;8.00;5.25
76101;PMS7003;64830;46.910;6.354;2023-02-25T08:21:03;12.00;9.25;5.75
76101;PMS7003;64830;46.910;6.354;2023-02-25T08:23:29;13.50;12.75;6.75
76101;PMS7003;64830;46.910;6.354;2023-02-25T08:25:55;12.00;11.75;7.75
76101;PMS7003;64830;46.910;6.354;2023-02-25T08:28:22;10.00;7.25;5.50
76101;PMS7003;64830;46.910;6.354;2023-02-25T08:30:49;9.25;9.00;8.50
76101;PMS7003;64830;46.910;6.354;2023-02-25T08:33:15;17.50;12.75;8.25
76101;PMS7003;64830;46.910;6.354;2023-02-25T08:35:41;12.25;9.50;7.75
76101;PMS7003;64830;46.910;6.354;2023-02-25T08:38:07;19.75;14.25;8.75
76101;PMS7003;64830;46.910;6.354;2023-02-25T08:40:34;13.50;10.00;6.75
76101;PMS7003;64830;46.910;6.354;2023-02-25T08:42:59;12.25;11.75;7.50
76101;PMS7003;64830;46.910;6.354;2023-02-25T08:45:25;13.50;10.00;8.00
76101;PMS7003;64830;46.910;6.354;2023-02-25T08:47:50;12.75;10.75;8.00
76101;PMS7003;64830;46.910;6.354;2023-02-25T08:50:16;12.75;10.25;8.00
76101;PMS7003;64830;46.910;6.354;2023-02-25T08:52:42;8.25;8.00;5.00
76101;PMS7003;64830;46.910;6.354;2023-02-25T08:55:08;13.00;12.00;8.00
76101;PMS7003;64830;46.910;6.354;2023-02-25T08:57:39;7.25;7.25;4.50
76101;PMS7003;64830;46.910;6.354;2023-02-25T09:00:06;9.25;7.00;2.50
76101;PMS7003;64830;46.910;6.354;2023-02-25T09:02:36;12.25;12.00;5.75
76101;PMS7003;64830;46.910;6.354;2023-02-25T09:05:02;12.25;9.25;6.00
76101;PMS7003;64830;46.910;6.354;2023-02-25T09:07:28;14.00;11.25;7.25
76101;PMS7003;64830;46.910;6.354;2023-02-25T09:09:54;17.00;15.00;9.25
76101;PMS7003;64830;46.910;6.354;2023-02-25T09:12:19;11.00;9.75;7.00
76101;PMS7003;64830;46.910;6.354;2023-02-25T09:14:45;13.50;11.00;8.00
76101;PMS7003;64830;46.910;6.354;2023-02-25T09:17:10;14.00;11.00;8.50
76101;PMS7003;64830;46.910;6.354;2023-02-25T09:19:36;10.75;10.75;8.50
76101;PMS7003;64830;46.910;6.354;2023-02-25T09:22:05;11.50;11.00;6.25
76101;PMS7003;64830;46.910;6.354;2023-02-25T09:24:31;8.75;6.75;6.50
76101;PMS7003;64830;46.910;6.354;2023-02-25T09:26:58;8.50;8.00;5.25
76101;PMS7003;64830;46.910;6.354;2023-02-25T09:29:24;9.00;6.00;5.25
76101;PMS7003;64830;46.910;6.354;2023-02-25T09:31:52;10.00;9.50;6.00
76101;PMS7003;64830;46.910;6.354;2023-02-25T09:34:18;7.25;7.00;5.00
76101;PMS7003;64830;46.910;6.354;2023-02-25T09:36:44;10.00;9.25;7.75
76101;PMS7003;64830;46.910;6.354;2023-02-25T09:39:10;8.25;8.25;5.75
76101;PMS7003;64830;46.910;6.354;2023-02-25T09:41:48;10.00;7.25;5.50
76101;PMS7003;64830;46.910;6.354;2023-02-25T09:46:55;14.00;13.75;8.50
76101;PMS7003;64830;46.910;6.354;2023-02-25T09:52:16;14.50;12.00;6.00
76101;PMS7003;64830;46.910;6.354;2023-02-25T09:54:47;9.50;7.50;5.00
76101;PMS7003;64830;46.910;6.354;2023-02-25T09:57:17;9.75;9.50;7.25
76101;PMS7003;64830;46.910;6.354;2023-02-25T09:59:46;9.50;8.00;5.50
76101;PMS7003;64830;46.910;6.354;2023-02-25T10:11:08;17.50;9.75;6.00
76101;PMS7003;64830;46.910;6.354;2023-02-25T10:13:40;5.00;4.75;4.00
76101;PMS7003;64830;46.910;6.354;2023-02-25T10:16:35;11.00;10.25;6.00
76101;PMS7003;64830;46.910;6.354;2023-02-25T10:22:30;14.25;11.00;7.00
76101;PMS7003;64830;46.910;6.354;2023-02-25T10:25:10;10.25;9.75;7.00
76101;PMS7003;64830;46.910;6.354;2023-02-25T10:27:43;9.00;9.00;6.50
76101;PMS7003;64830;46.910;6.354;2023-02-25T10:33:15;9.50;9.50;6.50
76101;PMS7003;64830;46.910;6.354;2023-02-25T10:35:45;12.25;8.25;4.00
76101;PMS7003;64830;46.910;6.354;2023-02-25T10:38:16;12.50;12.50;9.00
76101;PMS7003;64830;46.910;6.354;2023-02-25T10:40:41;15.00;13.00;9.50
76101;PMS7003;64830;46.910;6.354;2023-02-25T10:43:21;13.25;13.25;8.50
76101;PMS7003;64830;46.910;6.354;2023-02-25T10:45:50;13.00;10.00;6.75
76101;PMS7003;64830;46.910;6.354;2023-02-25T10:48:22;11.50;11.00;7.00
76101;PMS7003;64830;46.910;6.354;2023-02-25T10:51:00;11.50;7.00;5.75
76101;PMS7003;64830;46.910;6.354;2023-02-25T10:53:26;11.00;9.00;5.50
76101;PMS7003;64830;46.910;6.354;2023-02-25T10:55:52;16.50;13.75;8.50
76101;PMS7003;64830;46.910;6.354;2023-02-25T10:58:40;10.50;9.00;6.75
76101;PMS7003;64830;46.910;6.354;2023-02-25T11:01:13;15.75;14.50;7.25
76101;PMS7003;64830;46.910;6.354;2023-02-25T11:06:16;16.00;10.75;9.00
76101;PMS7003;64830;46.910;6.354;2023-02-25T11:08:42;12.75;10.00;8.00
76101;PMS7003;64830;46.910;6.354;2023-02-25T11:11:28;15.00;12.50;7.75
76101;PMS7003;64830;46.910;6.354;2023-02-25T11:14:14;15.25;10.25;7.75
76101;PMS7003;64830;46.910;6.354;2023-02-25T11:16:41;7.50;6.00;3.25
76101;PMS7003;64830;46.910;6.354;2023-02-25T11:19:16;10.25;8.50;6.00
76101;PMS7003;64830;46.910;6.354;2023-02-25T11:21:46;6.75;6.00;5.00
76101;PMS7003;64830;46.910;6.354;2023-02-25T11:24:14;10.25;8.00;5.00
76101;PMS7003;64830;46.910;6.354;2023-02-25T11:26:46;9.50;6.50;5.00
76101;PMS7003;64830;46.910;6.354;2023-02-25T11:29:16;12.25;9.00;5.00
76101;PMS7003;64830;46.910;6.354;2023-02-25T11:31:48;6.50;5.50;4.50
76101;PMS7003;64830;46.910;6.354;2023-02-25T11:34:23;7.25;5.75;5.50
76101;PMS7003;64830;46.910;6.354;2023-02-25T11:36:51;11.75;9.00;6.25
76101;PMS7003;64830;46.910;6.354;2023-02-25T11:39:25;10.50;10.00;4.75
76101;PMS7003;64830;46.910;6.354;2023-02-25T11:41:55;8.00;7.25;5.25
76101;PMS7003;64830;46.910;6.354;2023-02-25T11:49:41;9.00;6.25;5.00
76101;PMS7003;64830;46.910;6.354;2023-02-25T11:52:23;10.75;9.50;5.75
76101;PMS7003;64830;46.910;6.354;2023-02-25T12:06:29;13.00;9.00;5.50
76101;PMS7003;64830;46.910;6.354;2023-02-25T12:15:09;7.00;6.25;3.25
76101;PMS7003;64830;46.910;6.354;2023-02-25T12:32:41;9.75;8.50;5.75
76101;PMS7003;64830;46.910;6.354;2023-02-25T12:48:53;5.25;5.25;4.00
76101;PMS7003;64830;46.910;6.354;2023-02-25T12:54:28;3.75;3.50;2.75
76101;PMS7003;64830;46.910;6.354;2023-02-25T12:59:42;5.50;5.50;3.25
76101;PMS7003;64830;46.910;6.354;2023-02-25T13:19:30;9.25;8.00;5.75
76101;PMS7003;64830;46.910;6.354;2023-02-25T13:25:05;12.50;12.00;7.75
76101;PMS7003;64830;46.910;6.354;2023-02-25T13:30:34;8.25;8.25;5.50
76101;PMS7003;64830;46.910;6.354;2023-02-25T13:41:39;5.50;5.50;1.00
76101;PMS7003;64830;46.910;6.354;2023-02-25T13:52:20;9.00;9.00;4.50
76101;PMS7003;64830;46.910;6.354;2023-02-25T14:00:50;10.50;8.25;5.50
76101;PMS7003;64830;46.910;6.354;2023-02-25T14:03:29;5.00;5.00;2.00
76101;PMS7003;64830;46.910;6.354;2023-02-25T14:06:19;7.50;5.00;3.00
76101;PMS7003;64830;46.910;6.354;2023-02-25T14:09:03;5.75;4.75;4.00
76101;PMS7003;64830;46.910;6.354;2023-02-25T14:14:36;5.25;4.50;4.00
76101;PMS7003;64830;46.910;6.354;2023-02-25T14:30:51;5.00;4.25;4.00
76101;PMS7003;64830;46.910;6.354;2023-02-25T14:36:03;4.00;4.00;2.00
76101;PMS7003;64830;46.910;6.354;2023-02-25T14:43:54;2.50;2.00;1.50
76101;PMS7003;64830;46.910;6.354;2023-02-25T14:46:31;1.50;1.50;1.00
76101;PMS7003;64830;46.910;6.354;2023-02-25T15:06:36;3.00;1.00;1.00
76101;PMS7003;64830;46.910;6.354;2023-02-25T15:09:16;2.50;2.00;2.00
76101;PMS7003;64830;46.910;6.354;2023-02-25T15:24:50;6.50;5.00;4.00
76101;PMS7003;64830;46.910;6.354;2023-02-25T15:27:40;6.50;6.50;4.25
76101;PMS7003;64830;46.910;6.354;2023-02-25T15:30:13;8.00;8.00;4.00
76101;PMS7003;64830;46.910;6.354;2023-02-25T15:32:50;8.25;5.50;4.00
76101;PMS7003;64830;46.910;6.354;2023-02-25T15:38:08;4.00;4.00;2.00
76101;PMS7003;64830;46.910;6.354;2023-02-25T15:40:49;11.00;9.50;4.50
76101;PMS7003;64830;46.910;6.354;2023-02-25T15:45:41;5.50;4.00;4.00
76101;PMS7003;64830;46.910;6.354;2023-02-25T15:55:48;8.50;7.00;5.00
76101;PMS7003;64830;46.910;6.354;2023-02-25T16:06:01;5.00;3.50;0.25
76101;PMS7003;64830;46.910;6.354;2023-02-25T16:08:29;6.00;5.00;4.00
76101;PMS7003;64830;46.910;6.354;2023-02-25T16:11:00;5.00;5.00;3.50
76101;PMS7003;64830;46.910;6.354;2023-02-25T16:13:31;10.25;8.50;6.50
76101;PMS7003;64830;46.910;6.354;2023-02-25T16:15:59;7.00;4.50;3.00
76101;PMS7003;64830;46.910;6.354;2023-02-25T16:18:31;6.00;6.00;4.50
76101;PMS7003;64830;46.910;6.354;2023-02-25T16:21:02;8.00;6.00;5.00
76101;PMS7003;64830;46.910;6.354;2023-02-25T16:23:30;5.75;5.75;4.75
76101;PMS7003;64830;46.910;6.354;2023-02-25T16:26:13;5.50;5.00;4.75
76101;PMS7003;64830;46.910;6.354;2023-02-25T16:40:24;11.50;11.00;9.00
76101;PMS7003;64830;46.910;6.354;2023-02-25T16:42:54;10.00;9.25;7.00
76101;PMS7003;64830;46.910;6.354;2023-02-25T16:45:24;7.50;6.00;5.00
76101;PMS7003;64830;46.910;6.354;2023-02-25T16:48:15;9.75;8.75;5.50
76101;PMS7003;64830;46.910;6.354;2023-02-25T16:50:47;7.00;6.00;5.00
76101;PMS7003;64830;46.910;6.354;2023-02-25T16:53:16;9.50;7.00;6.00
76101;PMS7003;64830;46.910;6.354;2023-02-25T16:55:44;7.00;7.00;5.75
76101;PMS7003;64830;46.910;6.354;2023-02-25T16:58:19;4.00;4.00;2.50
76101;PMS7003;64830;46.910;6.354;2023-02-25T17:00:58;8.75;8.75;5.75
76101;PMS7003;64830;46.910;6.354;2023-02-25T17:03:27;11.50;11.50;6.00
76101;PMS7003;64830;46.910;6.354;2023-02-25T17:06:32;10.75;9.50;5.00
76101;PMS7003;64830;46.910;6.354;2023-02-25T17:08:50;9.00;8.50;5.50
76101;PMS7003;64830;46.910;6.354;2023-02-25T17:11:19;7.75;7.75;6.50
76101;PMS7003;64830;46.910;6.354;2023-02-25T17:13:47;16.50;10.50;8.75
76101;PMS7003;64830;46.910;6.354;2023-02-25T17:16:28;10.00;8.75;7.50
76101;PMS7003;64830;46.910;6.354;2023-02-25T17:18:59;8.75;6.50;5.00
76101;PMS7003;64830;46.910;6.354;2023-02-25T17:21:31;6.00;5.25;4.00
76101;PMS7003;64830;46.910;6.354;2023-02-25T17:24:00;11.25;8.00;5.00
76101;PMS7003;64830;46.910;6.354;2023-02-25T17:26:28;8.25;6.00;5.00
76101;PMS7003;64830;46.910;6.354;2023-02-25T17:28:55;7.50;5.75;4.75
76101;PMS7003;64830;46.910;6.354;2023-02-25T17:31:24;7.75;7.00;5.00
76101;PMS7003;64830;46.910;6.354;2023-02-25T17:33:53;6.00;6.00;5.50
76101;PMS7003;64830;46.910;6.354;2023-02-25T17:36:28;12.00;9.00;6.00
76101;PMS7003;64830;46.910;6.354;2023-02-25T17:38:56;12.50;9.25;8.25
76101;PMS7003;64830;46.910;6.354;2023-02-25T17:41:25;11.50;10.25;6.50
76101;PMS7003;64830;46.910;6.354;2023-02-25T17:43:51;8.50;8.50;6.00
76101;PMS7003;64830;46.910;6.354;2023-02-25T17:46:34;8.00;7.50;5.50
76101;PMS7003;64830;46.910;6.354;2023-02-25T17:49:17;12.25;9.75;5.75
76101;PMS7003;64830;46.910;6.354;2023-02-25T17:51:55;9.75;9.75;6.00
76101;PMS7003;64830;46.910;6.354;2023-02-25T17:54:24;8.75;8.25;5.50
76101;PMS7003;64830;46.910;6.354;2023-02-25T17:59:46;8.00;6.00;4.25
76101;PMS7003;64830;46.910;6.354;2023-02-25T18:04:46;10.00;9.25;6.00
76101;PMS7003;64830;46.910;6.354;2023-02-25T18:07:24;8.25;7.00;5.00
76101;PMS7003;64830;46.910;6.354;2023-02-25T18:09:55;8.75;8.75;6.50
76101;PMS7003;64830;46.910;6.354;2023-02-25T18:12:22;11.75;8.50;6.00
76101;PMS7003;64830;46.910;6.354;2023-02-25T18:17:36;9.75;9.75;8.00
76101;PMS7003;64830;46.910;6.354;2023-02-25T18:20:04;10.75;9.75;6.50
76101;PMS7003;64830;46.910;6.354;2023-02-25T18:25:04;8.75;7.50;5.75
76101;PMS7003;64830;46.910;6.354;2023-02-25T18:27:46;5.75;5.50;4.50
76101;PMS7003;64830;46.910;6.354;2023-02-25T18:30:17;8.75;8.00;5.75
76101;PMS7003;64830;46.910;6.354;2023-02-25T18:32:44;10.25;8.50;6.25
76101;PMS7003;64830;46.910;6.354;2023-02-25T18:35:11;6.25;6.25;4.75